createdAt,value
2019-05-03T00:01:44.572Z,89.85
2019-05-03T00:04:14.486Z,90.00
2019-05-03T00:06:42.975Z,89.99
2019-05-03T00:09:13.750Z,89.94
2019-05-03T00:11:42.239Z,89.45
2019-05-03T00:14:12.313Z,88.17
2019-05-03T00:16:41.994Z,88.01
2019-05-03T00:19:10.175Z,88.95
2019-05-03T00:21:38.704Z,86.81
2019-05-03T00:24:06.874Z,87.29
2019-05-03T00:26:35.042Z,87.01
2019-05-03T00:29:03.648Z,87.05
2019-05-03T00:31:32.090Z,86.66
2019-05-03T00:34:02.320Z,86.73
2019-05-03T00:36:47.257Z,86.62
2019-05-03T00:39:17.402Z,86.08
2019-05-03T00:41:45.876Z,85.77
2019-05-03T00:44:14.069Z,86.43
2019-05-03T00:46:42.226Z,86.44
2019-05-03T00:49:11.991Z,86.87
2019-05-03T00:51:42.300Z,87.01
2019-05-03T00:54:12.661Z,86.77
2019-05-03T00:56:44.144Z,85.99
2019-05-03T00:59:12.738Z,86.41
2019-05-03T01:01:42.509Z,86.19
2019-05-03T01:04:11.856Z,86.91
2019-05-03T01:06:40.077Z,86.42
2019-05-03T01:09:11.835Z,86.21
2019-05-03T01:11:41.728Z,86.76
2019-05-03T01:14:11.969Z,87.27
2019-05-03T01:16:40.163Z,86.19
2019-05-03T01:19:08.329Z,84.98
2019-05-03T01:21:36.865Z,86.16
2019-05-03T01:24:05.030Z,85.91
2019-05-03T01:26:33.199Z,86.19
2019-05-03T01:29:02.716Z,86.27
2019-05-03T01:31:31.978Z,86.76
2019-05-03T01:34:02.239Z,86.97
2019-05-03T01:36:32.091Z,86.39
2019-05-03T01:39:02.114Z,86.41
2019-05-03T01:41:32.323Z,86.92
2019-05-03T01:44:01.905Z,86.65
2019-05-03T01:46:31.601Z,86.56
2019-05-03T01:49:13.546Z,87.12
2019-05-03T01:51:49.604Z,86.83
2019-05-03T01:54:18.038Z,87.13
2019-05-03T01:56:56.848Z,86.96
2019-05-03T01:59:16.104Z,87.32
2019-05-03T02:01:48.584Z,87.70
2019-05-03T02:04:29.883Z,87.87
2019-05-03T02:06:58.063Z,87.38
2019-05-03T02:09:26.221Z,87.56
2019-05-03T02:11:55.023Z,87.54
2019-05-03T02:14:23.185Z,87.90
2019-05-03T02:16:52.303Z,87.98
2019-05-03T02:19:22.031Z,87.92
2019-05-03T02:21:52.209Z,88.42
2019-05-03T02:24:22.070Z,88.06
2019-05-03T02:26:50.462Z,88.51
2019-05-03T02:29:18.638Z,88.65
2019-05-03T02:31:46.827Z,89.03
2019-05-03T02:34:15.261Z,89.09
2019-05-03T02:36:43.427Z,89.54
2019-05-03T02:39:13.785Z,89.72
2019-05-03T02:41:45.235Z,89.82
2019-05-03T02:44:15.621Z,90.02
2019-05-03T02:47:00.831Z,90.34
2019-05-03T02:49:30.650Z,90.29
2019-05-03T02:51:58.815Z,90.38
2019-05-03T02:54:27.297Z,90.59
2019-05-03T02:56:56.108Z,90.42
2019-05-03T02:59:26.414Z,90.57
2019-05-03T03:01:55.758Z,90.44
2019-05-03T03:04:25.958Z,90.29
2019-05-03T03:06:55.640Z,90.13
2019-05-03T03:09:25.992Z,90.39
2019-05-03T03:11:55.783Z,89.84
2019-05-03T03:14:25.661Z,89.53
2019-05-03T03:16:56.004Z,89.09
2019-05-03T03:19:26.219Z,88.97
2019-05-03T03:21:56.261Z,89.07
2019-05-03T03:24:26.204Z,89.10
2019-05-03T03:26:56.507Z,89.09
2019-05-03T03:29:26.618Z,89.15
2019-05-03T03:32:18.337Z,88.86
2019-05-03T03:35:03.194Z,88.78
2019-05-03T03:37:30.031Z,88.68
2019-05-03T03:39:58.204Z,88.82
2019-05-03T03:42:26.383Z,89.06
2019-05-03T03:44:56.302Z,89.10
2019-05-03T03:47:27.216Z,88.94
2019-05-03T03:49:55.307Z,89.10
2019-05-03T03:52:25.478Z,89.13
2019-05-03T03:54:55.399Z,89.36
2019-05-03T03:57:25.250Z,89.19
2019-05-03T03:59:56.001Z,89.37
2019-05-03T04:02:26.209Z,89.54
2019-05-03T04:04:55.977Z,89.56
2019-05-03T04:07:26.251Z,89.77
2019-05-03T04:09:56.237Z,90.05
2019-05-03T04:12:26.626Z,90.39
2019-05-03T04:14:56.455Z,90.39
2019-05-03T04:17:45.706Z,90.54
2019-05-03T04:20:16.234Z,91.36
2019-05-03T04:22:45.273Z,92.06
2019-05-03T04:25:15.355Z,92.02
2019-05-03T04:27:45.626Z,92.56
2019-05-03T04:30:16.589Z,92.55
2019-05-03T04:32:45.477Z,92.55
2019-05-03T04:35:16.378Z,91.85
2019-05-03T04:37:45.361Z,90.85
2019-05-03T04:40:15.575Z,91.09
2019-05-03T04:42:46.528Z,91.28
2019-05-03T04:45:16.600Z,91.51
2019-05-03T04:47:46.435Z,91.52
2019-05-03T04:50:16.329Z,91.18
2019-05-03T04:52:46.267Z,90.90
2019-05-03T04:55:15.982Z,90.57
2019-05-03T04:57:46.870Z,90.34
2019-05-03T05:00:16.045Z,89.62
2019-05-03T05:02:45.794Z,89.65
2019-05-03T05:05:15.380Z,89.94
2019-05-03T05:07:45.622Z,90.24
2019-05-03T05:10:15.359Z,89.99
2019-05-03T05:12:45.759Z,90.08
2019-05-03T05:15:15.613Z,90.23
2019-05-03T05:17:45.979Z,90.00
2019-05-03T05:20:15.916Z,90.17
2019-05-03T05:22:45.381Z,90.19
2019-05-03T05:25:18.613Z,90.12
2019-05-03T05:28:04.919Z,90.60
2019-05-03T05:30:35.298Z,90.50
2019-05-03T05:33:05.311Z,90.49
2019-05-03T05:35:35.250Z,91.03
2019-05-03T05:38:04.641Z,90.61
2019-05-03T05:40:34.795Z,90.65
2019-05-03T05:43:04.902Z,90.68
2019-05-03T05:45:34.801Z,90.79
2019-05-03T05:48:07.537Z,91.27
2019-05-03T05:50:37.347Z,91.33
2019-05-03T05:53:05.509Z,91.72
2019-05-03T05:55:35.558Z,91.94
2019-05-03T05:58:08.148Z,92.25
2019-05-03T06:00:52.250Z,92.37
2019-05-03T06:03:20.406Z,92.31
2019-05-03T06:05:48.857Z,92.46
2019-05-03T06:08:18.906Z,92.24
2019-05-03T06:10:58.005Z,92.12
2019-05-03T06:13:36.684Z,92.08
2019-05-03T06:16:06.494Z,91.98
2019-05-03T06:18:36.606Z,91.77
2019-05-03T06:21:21.614Z,91.75
2019-05-03T06:23:57.214Z,91.87
2019-05-03T06:26:34.651Z,91.84
2019-05-03T06:29:04.591Z,91.51
2019-05-03T06:31:34.730Z,91.05
2019-05-03T06:34:04.522Z,91.15
2019-05-03T06:36:32.757Z,90.81
2019-05-03T06:39:00.919Z,90.43
2019-05-03T06:41:29.089Z,89.67
2019-05-03T06:43:57.246Z,90.08
2019-05-03T06:46:45.178Z,89.81
2019-05-03T06:49:15.113Z,89.13
2019-05-03T06:51:45.589Z,87.46
2019-05-03T06:54:15.653Z,86.65
2019-05-03T06:56:45.237Z,87.36
2019-05-03T06:59:15.508Z,86.89
2019-05-03T07:01:45.325Z,85.17
2019-05-03T07:04:21.018Z,86.94
2019-05-03T07:07:07.287Z,86.76
2019-05-03T07:09:44.462Z,87.38
2019-05-03T07:12:14.857Z,86.59
2019-05-03T07:14:45.014Z,85.18
2019-05-03T07:17:14.468Z,85.44
2019-05-03T07:19:42.766Z,85.67
2019-05-03T07:22:10.940Z,85.54
2019-05-03T07:24:40.946Z,87.02
2019-05-03T07:27:09.306Z,86.26
2019-05-03T07:29:37.549Z,86.14
2019-05-03T07:32:05.738Z,85.68
2019-05-03T07:34:35.080Z,86.31
2019-05-03T07:37:05.721Z,86.65
2019-05-03T07:39:34.939Z,84.83
2019-05-03T07:42:05.242Z,85.19
2019-05-03T07:44:34.804Z,83.70
2019-05-03T07:47:04.847Z,84.51
2019-05-03T07:49:35.469Z,84.47
2019-05-03T07:52:05.614Z,84.06
2019-05-03T07:54:34.841Z,83.47
2019-05-03T07:57:05.177Z,84.00
2019-05-03T07:59:34.967Z,84.92
2019-05-03T08:02:05.369Z,85.30
2019-05-03T08:04:35.654Z,85.17
2019-05-03T08:07:04.459Z,84.01
2019-05-03T08:09:34.862Z,84.03
2019-05-03T08:12:04.909Z,83.35
2019-05-03T08:14:32.674Z,82.72
2019-05-03T08:17:00.833Z,82.53
2019-05-03T08:19:29.015Z,83.72
2019-05-03T08:21:57.185Z,83.56
2019-05-03T08:24:25.490Z,82.22
2019-05-03T08:26:55.575Z,82.08
2019-05-03T08:29:24.883Z,80.13
2019-05-03T08:32:11.371Z,78.65
2019-05-03T08:34:57.320Z,79.32
2019-05-03T08:37:28.101Z,80.24
2019-05-03T08:39:56.389Z,80.32
2019-05-03T08:42:25.837Z,79.74
2019-05-03T08:44:55.301Z,78.44
2019-05-03T08:47:24.802Z,78.87
2019-05-03T08:49:55.255Z,77.35
2019-05-03T08:52:24.784Z,77.58
2019-05-03T08:54:55.099Z,77.91
2019-05-03T08:57:25.338Z,77.90
2019-05-03T08:59:54.925Z,77.27
2019-05-03T09:02:25.594Z,78.16
2019-05-03T09:04:54.677Z,77.16
2019-05-03T09:07:25.378Z,78.34
2019-05-03T09:10:05.467Z,79.22
2019-05-03T09:12:51.870Z,79.39
2019-05-03T09:15:21.676Z,80.76
2019-05-03T09:17:50.286Z,79.42
2019-05-03T09:20:18.750Z,80.69
2019-05-03T09:22:46.928Z,79.60
2019-05-03T09:25:15.620Z,80.56
2019-05-03T09:27:44.646Z,81.12
2019-05-03T09:30:14.487Z,80.54
2019-05-03T09:32:44.756Z,80.53
2019-05-03T09:35:26.791Z,80.36
2019-05-03T09:37:44.901Z,79.83
2019-05-03T09:40:14.713Z,79.89
2019-05-03T09:42:44.498Z,79.74
2019-05-03T09:45:15.249Z,79.09
2019-05-03T09:47:44.836Z,79.15
2019-05-03T09:50:15.456Z,78.36
2019-05-03T09:52:46.897Z,77.95
2019-05-03T09:55:15.486Z,77.24
2019-05-03T09:57:44.507Z,78.61
2019-05-03T10:00:13.631Z,78.05
2019-05-03T10:02:41.803Z,77.42
2019-05-03T10:05:09.983Z,78.49
2019-05-03T10:07:38.442Z,78.77
2019-05-03T10:10:07.066Z,77.65
2019-05-03T10:12:35.240Z,76.05
2019-05-03T10:15:06.471Z,75.19
2019-05-03T10:17:36.365Z,74.24
2019-05-03T10:20:09.160Z,73.00
2019-05-03T10:22:37.324Z,71.26
2019-05-03T10:25:07.561Z,71.34
2019-05-03T10:27:48.046Z,71.85
2019-05-03T10:30:18.599Z,72.15
2019-05-03T10:33:01.025Z,73.16
2019-05-03T10:35:29.192Z,72.66
2019-05-03T10:37:57.704Z,73.21
2019-05-03T10:40:26.558Z,74.41
2019-05-03T10:42:55.429Z,74.34
2019-05-03T10:45:25.780Z,75.53
2019-05-03T10:47:53.450Z,75.26
2019-05-03T10:50:22.224Z,75.32
2019-05-03T10:52:52.027Z,74.80
2019-05-03T10:55:20.588Z,73.80
2019-05-03T10:58:06.668Z,73.90
2019-05-03T11:00:49.507Z,73.44
2019-05-03T11:03:12.222Z,73.27
2019-05-03T11:05:40.388Z,71.96
2019-05-03T11:08:08.553Z,73.01
2019-05-03T11:10:37.050Z,71.56
2019-05-03T11:13:05.872Z,71.93
2019-05-03T11:15:35.065Z,72.10
2019-05-03T11:18:05.448Z,72.55
2019-05-03T11:20:36.946Z,73.78
2019-05-03T11:23:06.176Z,73.55
2019-05-03T11:25:34.915Z,73.64
2019-05-03T11:28:04.919Z,74.00
2019-05-03T11:30:35.535Z,74.67
2019-05-03T11:33:05.064Z,76.03
2019-05-03T11:35:38.278Z,76.28
2019-05-03T11:38:08.172Z,75.93
2019-05-03T11:40:36.646Z,75.14
2019-05-03T11:43:05.339Z,74.76
2019-05-03T11:45:35.383Z,73.70
2019-05-03T11:48:03.952Z,72.94
2019-05-03T11:50:32.127Z,72.86
2019-05-03T11:53:00.316Z,70.70
2019-05-03T11:55:28.779Z,71.79
2019-05-03T11:57:56.966Z,71.06
2019-05-03T12:00:27.075Z,71.82
2019-05-03T12:02:56.913Z,68.86
2019-05-03T12:05:29.244Z,70.98
2019-05-03T12:07:58.244Z,70.44
2019-05-03T12:10:46.996Z,71.69
2019-05-03T12:13:05.044Z,71.13
2019-05-03T12:15:35.194Z,69.84
2019-05-03T12:18:06.234Z,69.66
2019-05-03T12:20:37.103Z,70.05
2019-05-03T12:23:06.134Z,68.67
2019-05-03T12:25:36.104Z,70.53
2019-05-03T12:28:06.053Z,69.39
2019-05-03T12:30:35.581Z,68.94
2019-05-03T12:33:05.968Z,68.15
2019-05-03T12:35:35.811Z,66.46
2019-05-03T12:38:05.536Z,68.83
2019-05-03T12:40:35.036Z,68.38
2019-05-03T12:43:05.796Z,68.65
2019-05-03T12:45:35.353Z,67.40
2019-05-03T12:48:04.927Z,67.94
2019-05-03T12:50:34.649Z,67.73
2019-05-03T12:53:04.745Z,67.47
2019-05-03T12:55:35.350Z,69.14
2019-05-03T12:58:05.841Z,67.37
2019-05-03T13:00:35.191Z,69.76
2019-05-03T13:03:08.278Z,71.01
2019-05-03T13:05:36.452Z,72.47
2019-05-03T13:08:25.941Z,71.24
2019-05-03T13:10:55.681Z,72.26
2019-05-03T13:13:25.005Z,72.30
2019-05-03T13:15:54.917Z,70.28
2019-05-03T13:18:25.242Z,70.74
2019-05-03T13:20:55.831Z,71.64
2019-05-03T13:23:25.284Z,70.27
2019-05-03T13:25:53.706Z,70.90
2019-05-03T13:28:22.133Z,70.72
2019-05-03T13:30:50.311Z,71.78
2019-05-03T13:33:18.486Z,72.48
2019-05-03T13:35:47.750Z,73.09
2019-05-03T13:38:15.925Z,72.39
2019-05-03T13:40:45.299Z,73.26
2019-05-03T13:43:15.016Z,76.00
2019-05-03T13:45:45.075Z,72.83
2019-05-03T13:48:15.382Z,74.34
2019-05-03T13:50:44.735Z,71.35
2019-05-03T13:53:13.096Z,73.40
2019-05-03T13:55:41.291Z,71.01
2019-05-03T13:58:09.462Z,75.43
2019-05-03T14:00:39.524Z,75.23
2019-05-03T14:03:07.992Z,74.85
2019-05-03T14:05:36.455Z,75.99
2019-05-03T14:08:05.231Z,75.43
2019-05-03T14:10:35.733Z,76.02
2019-05-03T14:13:05.458Z,77.29
2019-05-03T14:15:34.775Z,78.83
2019-05-03T14:18:05.607Z,79.62
2019-05-03T14:20:47.049Z,80.32
2019-05-03T14:23:15.357Z,80.72
2019-05-03T14:25:44.645Z,80.41
2019-05-03T14:28:14.570Z,80.30
2019-05-03T14:30:45.347Z,81.70
2019-05-03T14:33:14.123Z,80.25
2019-05-03T14:35:42.603Z,79.23
2019-05-03T14:38:11.087Z,79.78
2019-05-03T14:40:39.269Z,80.11
2019-05-03T14:43:07.442Z,80.14
2019-05-03T14:45:35.621Z,78.65
2019-05-03T14:48:06.191Z,78.60
2019-05-03T14:50:35.012Z,79.39
2019-05-03T14:53:05.416Z,78.77
2019-05-03T14:55:37.835Z,78.68
2019-05-03T14:58:17.508Z,78.11
2019-05-03T15:00:50.695Z,77.20
2019-05-03T15:03:30.611Z,76.18
2019-05-03T15:05:59.128Z,75.75
2019-05-03T15:08:28.204Z,74.71
2019-05-03T15:10:56.718Z,72.70
2019-05-03T15:13:25.233Z,72.13
2019-05-03T15:15:54.743Z,71.89
2019-05-03T15:22:05.682Z,74.12
2019-05-03T15:24:39.660Z,75.30
2019-05-03T15:27:07.849Z,74.91
2019-05-03T15:29:36.347Z,74.73
2019-05-03T15:32:05.188Z,74.85
2019-05-03T15:34:35.416Z,74.88
2019-05-03T15:37:05.425Z,75.24
2019-05-03T15:39:33.945Z,73.42
2019-05-03T15:42:02.468Z,74.42
2019-05-03T15:44:50.771Z,73.50
2019-05-03T15:47:20.599Z,73.92
2019-05-03T15:49:49.072Z,72.66
2019-05-03T15:52:17.791Z,73.62
2019-05-03T15:54:45.965Z,72.27
2019-05-03T15:57:14.465Z,71.60
2019-05-03T15:59:44.411Z,70.66
2019-05-03T16:02:12.928Z,70.83
2019-05-03T16:04:41.395Z,70.52
2019-05-03T16:07:09.602Z,71.37
2019-05-03T16:09:37.764Z,69.47
2019-05-03T16:12:06.182Z,69.87
2019-05-03T16:14:35.014Z,71.19
2019-05-03T16:17:04.437Z,71.61
2019-05-03T16:19:33.004Z,72.87
2019-05-03T16:22:04.890Z,72.99
2019-05-03T16:24:33.155Z,72.45
2019-05-03T16:27:18.840Z,74.16
2019-05-03T16:29:47.015Z,74.63
2019-05-03T16:32:15.203Z,74.42
2019-05-03T16:34:44.512Z,75.31
2019-05-03T16:37:14.832Z,74.66
2019-05-03T16:39:45.201Z,74.86
2019-05-03T16:42:15.419Z,71.82
2019-05-03T16:44:44.414Z,72.81
2019-05-03T16:47:12.724Z,72.73
2019-05-03T16:49:41.203Z,72.79
2019-05-03T16:52:09.399Z,73.12
2019-05-03T16:54:37.855Z,73.96
2019-05-03T16:57:06.438Z,73.48
2019-05-03T16:59:35.249Z,72.74
2019-05-03T17:02:05.643Z,72.42
2019-05-03T17:04:38.056Z,73.60
2019-05-03T17:07:10.873Z,73.83
2019-05-03T17:09:41.168Z,74.06
2019-05-03T17:12:15.115Z,74.42
2019-05-03T17:14:43.478Z,73.47
2019-05-03T17:17:12.007Z,72.82
2019-05-03T17:19:40.593Z,72.37
2019-05-03T17:22:08.753Z,72.71
2019-05-03T17:24:36.982Z,72.61
2019-05-03T17:27:05.143Z,70.97
2019-05-03T17:29:35.087Z,70.54
2019-05-03T17:32:04.923Z,71.31
2019-05-03T17:34:34.678Z,72.35
2019-05-03T17:37:05.007Z,73.36
2019-05-03T17:39:45.479Z,73.14
2019-05-03T17:42:31.530Z,73.42
2019-05-03T17:44:59.751Z,73.53
2019-05-03T17:47:27.999Z,73.90
2019-05-03T17:49:56.583Z,73.87
2019-05-03T17:52:26.389Z,74.91
2019-05-03T17:54:56.722Z,74.83
2019-05-03T17:57:35.307Z,75.92
2019-05-03T18:00:10.714Z,75.40
2019-05-03T18:02:40.523Z,76.18
2019-05-03T18:05:28.160Z,76.23
2019-05-03T18:08:00.972Z,76.46
2019-05-03T18:10:30.919Z,76.80
2019-05-03T18:12:59.398Z,76.42
2019-05-03T18:15:27.883Z,75.93
2019-05-03T18:17:56.053Z,76.43
2019-05-03T18:20:25.543Z,77.01
2019-05-03T18:22:54.648Z,77.56
2019-05-03T18:25:24.800Z,77.48
2019-05-03T18:27:55.053Z,77.99
2019-05-03T18:30:22.962Z,78.45
2019-05-03T18:32:51.132Z,78.56
2019-05-03T18:35:19.625Z,79.77
2019-05-03T18:37:49.433Z,80.16
2019-05-03T18:40:17.612Z,81.03
2019-05-03T18:42:59.431Z,81.22
2019-05-03T18:45:45.814Z,81.72
2019-05-03T18:48:14.428Z,82.19
2019-05-03T18:50:42.776Z,82.71
2019-05-03T18:53:11.183Z,83.25
2019-05-03T18:55:39.652Z,83.55
2019-05-03T18:58:08.120Z,83.62
2019-05-03T19:00:36.819Z,83.82
2019-05-03T19:03:04.978Z,83.93
2019-05-03T19:05:34.999Z,84.27
2019-05-03T19:08:15.340Z,84.63
2019-05-03T19:10:48.335Z,84.82
2019-05-03T19:13:27.092Z,84.81
2019-05-03T19:15:55.263Z,85.13
2019-05-03T19:18:30.996Z,85.08
2019-05-03T19:20:59.190Z,85.24
2019-05-03T19:23:27.358Z,85.20
2019-05-03T19:25:55.661Z,85.45
2019-05-03T19:28:24.902Z,85.63
2019-05-03T19:30:54.948Z,85.81
2019-05-03T19:33:23.534Z,86.13
2019-05-03T19:35:51.737Z,86.10
2019-05-03T19:38:19.904Z,85.91
2019-05-03T19:40:48.080Z,86.00
2019-05-03T19:43:16.248Z,86.09
2019-05-03T19:45:44.946Z,86.21
2019-05-03T19:48:14.712Z,86.23
2019-05-03T19:50:44.559Z,86.30
2019-05-03T19:53:14.760Z,86.47
2019-05-03T19:55:44.870Z,86.70
2019-05-03T19:58:14.465Z,87.33
2019-05-03T20:01:00.546Z,87.10
2019-05-03T20:03:38.953Z,87.05
2019-05-03T20:06:25.230Z,86.98
2019-05-03T20:08:55.093Z,87.02
2019-05-03T20:11:25.183Z,87.20
2019-05-03T20:13:55.143Z,87.26
2019-05-03T20:16:23.361Z,87.36
2019-05-03T20:18:51.530Z,87.40
2019-05-03T20:21:20.084Z,87.61
2019-05-03T20:23:48.562Z,87.64
2019-05-03T20:26:16.746Z,87.27
2019-05-03T20:28:45.274Z,87.68
2019-05-03T20:31:13.410Z,87.31
2019-05-03T20:33:41.584Z,87.16
2019-05-03T20:36:09.770Z,87.61
2019-05-03T20:38:37.937Z,88.05
2019-05-03T20:41:06.120Z,88.29
2019-05-03T20:43:45.121Z,88.80
2019-05-03T20:46:25.454Z,89.56
2019-05-03T20:48:55.647Z,89.39
2019-05-03T20:51:25.197Z,89.57
2019-05-03T20:53:55.263Z,89.69
2019-05-03T20:56:24.617Z,89.46
2019-05-03T20:58:54.867Z,89.52
2019-05-03T21:01:23.151Z,89.51
2019-05-03T21:03:51.319Z,89.59
2019-05-03T21:06:32.433Z,89.58
2019-05-03T21:08:53.263Z,89.35
2019-05-03T21:11:19.625Z,89.40
2019-05-03T21:13:48.110Z,89.23
2019-05-03T21:16:18.223Z,88.82
2019-05-03T21:19:04.880Z,88.97
2019-05-03T21:21:37.813Z,88.85
2019-05-03T21:24:13.463Z,88.77
2019-05-03T21:26:41.982Z,88.81
2019-05-03T21:29:10.239Z,88.72
2019-05-03T21:31:38.705Z,88.67
2019-05-03T21:34:06.887Z,88.69
2019-05-03T21:36:35.061Z,88.64
2019-05-03T21:39:05.295Z,88.50
2019-05-03T21:41:35.014Z,88.12
2019-05-03T21:44:04.820Z,88.03
2019-05-03T21:46:37.584Z,88.02
2019-05-03T21:49:07.405Z,88.00
2019-05-03T21:51:35.578Z,88.05
2019-05-03T21:54:06.576Z,88.15
2019-05-03T21:56:35.618Z,88.42
2019-05-03T21:59:05.587Z,88.35
2019-05-03T22:01:37.503Z,88.39
2019-05-03T22:04:05.453Z,88.44
2019-05-03T22:06:35.084Z,88.54
2019-05-03T22:09:04.605Z,88.65
2019-05-03T22:11:32.772Z,88.92
2019-05-03T22:14:02.591Z,89.03
2019-05-03T22:16:35.444Z,89.12
2019-05-03T22:19:03.935Z,89.13
2019-05-03T22:21:49.865Z,89.32
2019-05-03T22:24:28.744Z,89.27
2019-05-03T22:27:01.465Z,89.01
2019-05-03T22:29:29.647Z,87.61
2019-05-03T22:31:57.824Z,87.33
2019-05-03T22:34:26.040Z,87.31
2019-05-03T22:36:54.832Z,87.92
2019-05-03T22:39:25.007Z,88.34
2019-05-03T22:41:55.526Z,88.51
2019-05-03T22:44:25.112Z,88.56
2019-05-03T22:46:54.982Z,88.60
2019-05-03T22:49:23.110Z,88.74
2019-05-03T22:51:51.280Z,88.10
2019-05-03T22:54:19.462Z,88.14
2019-05-03T22:56:47.628Z,88.72
2019-05-03T22:59:15.812Z,88.73
2019-05-03T23:01:45.818Z,89.29
2019-05-03T23:04:14.619Z,89.75
2019-05-03T23:06:46.743Z,89.81
2019-05-03T23:09:15.685Z,90.25
2019-05-03T23:11:44.722Z,89.65
2019-05-03T23:14:15.097Z,90.41
2019-05-03T23:16:44.826Z,90.57
2019-05-03T23:19:14.957Z,91.68
2019-05-03T23:21:44.779Z,91.64
2019-05-03T23:24:12.968Z,91.05
2019-05-03T23:26:41.141Z,91.31
2019-05-03T23:29:09.316Z,90.90
2019-05-03T23:31:37.505Z,91.09
2019-05-03T23:34:05.676Z,91.61
2019-05-03T23:36:36.239Z,91.56
2019-05-03T23:39:05.224Z,91.65
2019-05-03T23:41:35.067Z,91.44
2019-05-03T23:44:04.788Z,91.48
2019-05-03T23:46:34.893Z,91.33
2019-05-03T23:49:03.065Z,91.31
2019-05-03T23:51:51.283Z,91.21
2019-05-03T23:54:19.463Z,91.21
2019-05-03T23:56:47.932Z,91.14
2019-05-03T23:59:16.421Z,90.99
